createdAt,value
2023-02-19T00:00:22.790Z,100267.44
2023-02-19T00:01:31.447Z,100267.44
2023-02-19T00:02:35.942Z,100262.44
2023-02-19T00:03:38.988Z,100258.28
2023-02-19T00:04:42.638Z,100259.09
2023-02-19T00:05:44.872Z,100259.34
2023-02-19T00:06:48.136Z,100254.66
2023-02-19T00:07:52.946Z,100255.53
2023-02-19T00:08:55.832Z,100255.53
2023-02-19T00:09:58.333Z,100257.41
2023-02-19T00:11:05.991Z,100248.34
2023-02-19T00:12:08.315Z,100250.50
2023-02-19T00:13:11.063Z,100246.66
2023-02-19T00:14:18.199Z,100246.66
2023-02-19T00:15:20.364Z,100248.00
2023-02-19T00:16:27.882Z,100241.41
2023-02-19T00:17:31.732Z,100246.66
2023-02-19T00:18:34.005Z,100239.00
2023-02-19T00:19:37.291Z,100242.00
2023-02-19T00:20:39.458Z,100235.91
2023-02-19T00:21:42.909Z,100238.66
2023-02-19T00:22:46.073Z,100240.31
2023-02-19T00:23:50.760Z,100230.66
2023-02-19T00:24:52.887Z,100233.66
2023-02-19T00:25:55.537Z,100236.41
2023-02-19T00:26:57.775Z,100236.16
2023-02-19T00:28:00.024Z,100225.97
2023-02-19T00:29:02.501Z,100236.97
2023-02-19T00:30:06.802Z,100226.22
2023-02-19T00:31:24.354Z,100231.72
2023-02-19T00:32:26.644Z,100230.06
2023-02-19T00:33:29.685Z,100234.47
2023-02-19T00:34:31.938Z,100227.56
2023-02-19T00:35:37.346Z,100223.47
2023-02-19T00:36:41.296Z,100229.22
2023-02-19T00:37:44.687Z,100221.78
2023-02-19T00:38:47.648Z,100228.16
2023-02-19T00:39:50.487Z,100231.72
2023-02-19T00:40:53.863Z,100227.03
2023-02-19T00:41:59.810Z,100225.97
2023-02-19T00:43:03.342Z,100226.81
2023-02-19T00:44:07.986Z,100214.94
2023-02-19T00:45:10.153Z,100219.63
2023-02-19T00:46:12.465Z,100218.53
2023-02-19T00:47:15.693Z,100213.03
2023-02-19T00:48:17.901Z,100213.03
2023-02-19T00:49:22.424Z,100216.88
2023-02-19T00:50:24.917Z,100217.69
2023-02-19T00:51:35.756Z,100227.88
2023-02-19T00:52:38.015Z,100216.63
2023-02-19T00:53:40.735Z,100211.38
2023-02-19T00:54:43.772Z,100213.03
2023-02-19T00:55:45.923Z,100214.13
2023-02-19T00:56:48.864Z,100211.84
2023-02-19T00:57:51.644Z,100211.53
2023-02-19T00:58:53.984Z,100220.03
2023-02-19T00:59:56.554Z,100208.19
2023-02-19T01:00:58.799Z,100208.44
2023-02-19T01:02:00.958Z,100212.63
2023-02-19T01:03:04.829Z,100205.44
2023-02-19T01:04:07.172Z,100211.78
2023-02-19T01:05:09.463Z,100212.63
2023-02-19T01:06:14.309Z,100210.69
2023-02-19T01:07:16.536Z,100209.63
2023-02-19T01:08:20.157Z,100198.84
2023-02-19T01:09:22.354Z,100204.34
2023-02-19T01:10:24.659Z,100208.78
2023-02-19T01:11:27.834Z,100204.09
2023-02-19T01:12:31.880Z,100201.94
2023-02-19T01:13:34.606Z,100196.66
2023-02-19T01:14:37.239Z,100196.44
2023-02-19T01:15:39.559Z,100192.81
2023-02-19T01:16:41.965Z,100192.56
2023-02-19T01:17:45.491Z,100181.81
2023-02-19T01:18:51.385Z,100184.31
2023-02-19T01:19:54.444Z,100179.91
2023-02-19T01:20:56.627Z,100177.97
2023-02-19T01:21:59.977Z,100175.22
2023-02-19T01:23:02.152Z,100176.91
2023-02-19T01:24:05.826Z,100176.91
2023-02-19T01:25:08.238Z,100180.47
2023-02-19T01:26:16.867Z,100182.16
2023-02-19T01:27:19.461Z,100173.28
2023-02-19T01:28:22.610Z,100174.97
2023-02-19T01:29:25.719Z,100166.69
2023-02-19T01:30:28.030Z,100167.28
2023-02-19T01:31:32.073Z,100163.44
2023-02-19T01:32:35.777Z,100157.94
2023-02-19T01:33:38.051Z,100156.28
2023-02-19T01:34:40.343Z,100149.69
2023-02-19T01:35:42.933Z,100154.06
2023-02-19T01:36:45.198Z,100146.06
2023-02-19T01:37:47.728Z,100147.16
2023-02-19T01:38:49.984Z,100155.19
2023-02-19T01:39:55.162Z,100141.66
2023-02-19T01:41:00.168Z,100146.00
2023-02-19T01:42:03.319Z,100144.31
2023-02-19T01:43:11.861Z,100137.47
2023-02-19T01:44:14.969Z,100136.91
2023-02-19T01:45:26.815Z,100147.09
2023-02-19T01:46:34.536Z,100138.81
2023-02-19T01:47:36.801Z,100143.50
2023-02-19T01:48:40.572Z,100145.66
2023-02-19T01:49:49.062Z,100139.06
2023-02-19T01:51:00.989Z,100139.06
2023-02-19T01:52:17.991Z,100136.31
2023-02-19T01:53:24.236Z,100141.84
2023-02-19T01:54:30.339Z,100137.41
2023-02-19T01:55:34.732Z,100128.31
2023-02-19T01:56:39.926Z,100134.91
2023-02-19T01:57:46.992Z,100146.78
2023-02-19T01:58:53.326Z,100143.19
2023-02-19T02:00:02.876Z,100140.41
2023-02-19T02:01:14.961Z,100131.34
2023-02-19T02:02:17.818Z,100133.81
2023-02-19T02:03:20.979Z,100140.16
2023-02-19T02:04:23.224Z,100136.59
2023-02-19T02:05:37.405Z,100133.00
2023-02-19T02:06:48.080Z,100131.91
2023-02-19T02:08:08.963Z,100128.06
2023-02-19T02:09:30.499Z,100126.38
2023-02-19T02:10:33.719Z,100125.31
2023-02-19T02:11:36.924Z,100127.25
2023-02-19T02:12:39.178Z,100125.31
2023-02-19T02:13:42.094Z,100139.06
2023-02-19T02:14:47.096Z,100126.97
2023-02-19T02:16:04.335Z,100118.13
2023-02-19T02:17:27.841Z,100115.38
2023-02-19T02:18:58.568Z,100120.31
2023-02-19T02:20:32.738Z,100119.47
2023-02-19T02:22:12.940Z,100117.81
2023-02-19T02:23:24.238Z,100119.72
2023-02-19T02:24:32.654Z,100113.63
2023-02-19T02:25:53.423Z,100112.78
2023-02-19T02:27:17.115Z,100105.03
2023-02-19T02:28:44.528Z,100103.34
2023-02-19T02:30:24.412Z,100110.22
2023-02-19T02:31:35.790Z,100107.13
2023-02-19T02:32:54.670Z,100108.47
2023-02-19T02:34:07.210Z,100107.63
2023-02-19T02:35:13.559Z,100101.81
2023-02-19T02:36:22.233Z,100089.63
2023-02-19T02:37:28.901Z,100089.28
2023-02-19T02:38:35.265Z,100088.72
2023-02-19T02:39:38.957Z,100087.31
2023-02-19T02:40:44.514Z,100086.47
2023-02-19T02:42:16.828Z,100087.25
2023-02-19T02:43:25.938Z,100082.56
2023-02-19T02:44:37.366Z,100083.41
2023-02-19T02:45:41.003Z,100086.72
2023-02-19T02:46:54.407Z,100092.50
2023-02-19T02:47:58.545Z,100073.22
2023-02-19T02:49:12.797Z,100076.25
2023-02-19T02:50:26.534Z,100079.25
2023-02-19T02:51:43.741Z,100076.50
2023-02-19T02:53:18.201Z,100075.63
2023-02-19T02:54:44.653Z,100068.78
2023-02-19T02:55:52.756Z,100071.56
2023-02-19T02:56:56.716Z,100064.16
2023-02-19T02:57:59.539Z,100053.13
2023-02-19T02:59:05.544Z,100058.38
2023-02-19T03:00:08.732Z,100058.63
2023-02-19T03:01:35.182Z,100057.78
2023-02-19T03:02:37.994Z,100056.97
2023-02-19T03:03:44.179Z,100060.28
2023-02-19T03:05:24.092Z,100055.03
2023-02-19T03:06:30.170Z,100049.53
2023-02-19T03:08:12.873Z,100061.06
2023-02-19T03:09:32.630Z,100061.06
2023-02-19T03:10:42.728Z,100053.63
2023-02-19T03:12:10.993Z,100054.97
2023-02-19T03:13:56.186Z,100047.28
2023-02-19T03:15:23.383Z,100052.22
2023-02-19T03:16:52.632Z,100045.63
2023-02-19T03:18:21.053Z,100051.94
2023-02-19T03:19:26.704Z,100046.72
2023-02-19T03:20:31.851Z,100040.13
2023-02-19T03:21:38.467Z,100034.63
2023-02-19T03:22:45.633Z,100039.31
2023-02-19T03:24:08.114Z,100039.03
2023-02-19T03:25:37.703Z,100040.94
2023-02-19T03:26:43.639Z,100032.69
2023-02-19T03:27:48.154Z,100030.78
2023-02-19T03:29:11.703Z,100029.94
2023-02-19T03:30:22.535Z,100031.59
2023-02-19T03:31:29.057Z,100025.84
2023-02-19T03:32:44.750Z,100034.94
2023-02-19T03:33:52.807Z,100030.25
2023-02-19T03:35:14.381Z,100028.59
2023-02-19T03:36:19.024Z,100025.63
2023-02-19T03:37:32.649Z,100030.00
2023-02-19T03:39:02.599Z,100020.94
2023-02-19T03:40:05.670Z,100020.94
2023-02-19T03:41:44.478Z,100018.19
2023-02-19T03:42:56.774Z,100026.44
2023-02-19T03:44:33.842Z,100019.25
2023-02-19T03:45:56.228Z,100015.16
2023-02-19T03:47:06.845Z,100014.34
2023-02-19T03:48:25.535Z,100015.41
2023-02-19T03:49:41.229Z,100017.34
2023-02-19T03:50:50.361Z,100012.94
2023-02-19T03:52:05.156Z,100011.84
2023-02-19T03:53:31.515Z,100009.31
2023-02-19T03:55:07.339Z,100001.06
2023-02-19T03:56:36.510Z,100001.91
2023-02-19T03:57:50.223Z,100000.25
2023-02-19T03:59:05.585Z,100003.81
2023-02-19T04:00:21.601Z,99995.56
2023-02-19T04:01:54.103Z,99991.16
2023-02-19T04:03:03.887Z,99994.75
2023-02-19T04:04:29.163Z,99987.31
2023-02-19T04:05:36.698Z,99994.75
2023-02-19T04:06:42.321Z,99992.00
2023-02-19T04:07:52.592Z,99995.56
2023-02-19T04:09:02.180Z,99995.56
2023-02-19T04:10:08.127Z,99988.41
2023-02-19T04:11:16.613Z,99982.91
2023-02-19T04:12:21.197Z,99986.50
2023-02-19T04:13:40.920Z,99982.06
2023-02-19T04:15:01.219Z,99985.66
2023-02-19T04:16:10.240Z,99980.16
2023-02-19T04:17:42.791Z,99982.06
2023-02-19T04:18:50.068Z,99979.31
2023-02-19T04:19:54.778Z,99981.25
2023-02-19T04:21:00.480Z,99974.88
2023-02-19T04:22:06.112Z,99975.75
2023-02-19T04:23:11.012Z,99975.75
2023-02-19T04:24:21.956Z,99968.56
2023-02-19T04:25:27.433Z,99974.06
2023-02-19T04:26:31.455Z,99972.41
2023-02-19T04:27:45.835Z,99971.56
2023-02-19T04:28:48.058Z,99982.84
2023-02-19T04:29:51.068Z,99973.75
2023-02-19T04:30:53.291Z,99962.47
2023-02-19T04:31:55.705Z,99974.31
2023-02-19T04:32:58.756Z,99957.22
2023-02-19T04:34:04.007Z,99964.66
2023-02-19T04:35:08.154Z,99972.06
2023-02-19T04:36:11.736Z,99967.41
2023-02-19T04:37:14.107Z,99961.06
2023-02-19T04:38:16.348Z,99963.81
2023-02-19T04:39:18.664Z,99956.66
2023-02-19T04:40:22.025Z,99962.44
2023-02-19T04:41:26.838Z,99974.00
2023-02-19T04:42:29.376Z,99969.31
2023-02-19T04:43:32.607Z,99966.56
2023-02-19T04:44:35.812Z,99963.00
2023-02-19T04:45:38.924Z,99963.00
2023-02-19T04:46:43.484Z,99973.19
2023-02-19T04:47:45.678Z,99975.94
2023-02-19T04:48:47.932Z,99976.75
2023-02-19T04:49:50.269Z,99973.19
2023-02-19T04:50:52.624Z,99971.00
2023-02-19T04:51:54.780Z,99965.47
2023-02-19T04:52:56.955Z,99968.22
2023-02-19T04:53:59.175Z,99966.56
2023-02-19T04:55:01.576Z,99966.56
2023-02-19T04:56:10.805Z,99971.25
2023-02-19T04:57:12.972Z,99966.56
2023-02-19T04:58:15.150Z,99971.25
2023-02-19T04:59:18.501Z,99966.00
2023-02-19T05:00:20.847Z,99966.81
2023-02-19T05:01:23.285Z,99970.44
2023-02-19T05:02:25.486Z,99970.69
2023-02-19T05:03:27.645Z,99969.84
2023-02-19T05:04:29.832Z,99981.69
2023-02-19T05:05:32.098Z,99968.75
2023-02-19T05:06:34.437Z,99979.16
2023-02-19T05:07:37.891Z,99973.09
2023-02-19T05:08:40.719Z,99975.28
2023-02-19T05:09:43.222Z,99977.75
2023-02-19T05:10:45.641Z,99979.09
2023-02-19T05:11:48.036Z,99982.09
2023-02-19T05:12:50.345Z,99985.72
2023-02-19T05:13:52.668Z,99981.84
2023-02-19T05:14:54.896Z,99985.72
2023-02-19T05:16:00.642Z,99995.06
2023-02-19T05:17:03.589Z,99978.28
2023-02-19T05:18:05.815Z,99987.34
2023-02-19T05:19:13.662Z,99988.22
2023-02-19T05:20:15.860Z,99986.78
2023-02-19T05:21:19.150Z,99982.38
2023-02-19T05:22:21.311Z,99988.69
2023-02-19T05:23:26.494Z,99987.63
2023-02-19T05:24:30.042Z,99988.69
2023-02-19T05:25:33.365Z,99986.78
2023-02-19T05:26:35.792Z,99982.38
2023-02-19T05:27:38.015Z,99984.31
2023-02-19T05:28:40.244Z,99988.38
2023-02-19T05:29:42.452Z,99984.78
2023-02-19T05:30:50.511Z,99992.78
2023-02-19T05:31:52.812Z,99966.38
2023-02-19T05:32:55.144Z,99977.06
2023-02-19T05:33:57.363Z,99976.19
2023-02-19T05:34:59.635Z,99981.72
2023-02-19T05:36:09.325Z,99981.72
2023-02-19T05:37:11.514Z,99979.81
2023-02-19T05:38:14.767Z,99988.06
2023-02-19T05:39:18.962Z,99980.06
2023-02-19T05:40:21.170Z,99973.44
2023-02-19T05:41:25.630Z,99973.44
2023-02-19T05:42:28.229Z,99978.13
2023-02-19T05:43:30.371Z,99973.72
2023-02-19T05:44:34.797Z,99974.56
2023-02-19T05:45:37.713Z,99972.63
2023-02-19T05:46:39.895Z,99984.72
2023-02-19T05:47:42.193Z,99972.28
2023-02-19T05:48:44.341Z,99970.41
2023-02-19T05:49:48.846Z,99976.97
2023-02-19T05:50:51.044Z,99974.22
2023-02-19T05:51:53.229Z,99975.06
2023-02-19T05:52:56.717Z,99981.63
2023-02-19T05:53:58.924Z,99979.41
2023-02-19T05:55:01.069Z,99989.31
2023-02-19T05:56:03.783Z,100002.00
2023-02-19T05:57:06.005Z,100008.06
2023-02-19T05:58:09.347Z,99999.00
2023-02-19T05:59:18.407Z,99993.50
2023-02-19T06:00:21.103Z,99994.00
2023-02-19T06:01:25.921Z,99991.81
2023-02-19T06:02:28.069Z,99992.31
2023-02-19T06:03:30.398Z,99996.16
2023-02-19T06:04:34.137Z,100006.09
2023-02-19T06:05:37.752Z,100000.59
2023-02-19T06:06:40.802Z,100004.16
2023-02-19T06:07:43.141Z,100009.66
2023-02-19T06:08:48.644Z,100001.41
2023-02-19T06:09:51.709Z,100006.91
2023-02-19T06:10:55.152Z,100002.25
2023-02-19T06:11:57.549Z,100001.41
2023-02-19T06:12:59.786Z,100005.81
2023-02-19T06:14:02.282Z,100012.16
2023-02-19T06:15:06.235Z,100013.81
2023-02-19T06:16:09.169Z,100013.81
2023-02-19T06:17:11.973Z,100012.16
2023-02-19T06:18:14.114Z,100016.56
2023-02-19T06:19:16.407Z,100011.06
2023-02-19T06:20:18.588Z,100025.91
2023-02-19T06:21:20.930Z,100023.41
2023-02-19T06:22:24.090Z,100019.84
2023-02-19T06:23:28.445Z,100022.34
2023-02-19T06:24:33.020Z,100025.91
2023-02-19T06:25:35.227Z,100021.50
2023-02-19T06:26:38.888Z,100021.50
2023-02-19T06:27:41.207Z,100019.59
2023-02-19T06:28:44.775Z,100021.25
2023-02-19T06:29:46.915Z,100028.91
2023-02-19T06:30:51.299Z,100024.25
2023-02-19T06:31:53.967Z,100037.75
2023-02-19T06:32:56.352Z,100032.25
2023-02-19T06:33:58.714Z,100044.34
2023-02-19T06:35:00.890Z,100034.75
2023-02-19T06:36:04.565Z,100038.56
2023-02-19T06:37:06.818Z,100035.81
2023-02-19T06:38:09.049Z,100036.66
2023-02-19T06:39:11.273Z,100037.50
2023-02-19T06:40:13.522Z,100035.81
2023-02-19T06:41:16.039Z,100035.81
2023-02-19T06:42:19.089Z,100036.66
2023-02-19T06:43:21.594Z,100046.84
2023-02-19T06:44:24.322Z,100048.25
2023-02-19T06:45:26.725Z,100051.81
2023-02-19T06:46:29.094Z,100051.00
2023-02-19T06:47:32.953Z,100053.75
2023-02-19T06:48:37.438Z,100053.75
2023-02-19T06:49:40.481Z,100060.94
2023-02-19T06:50:42.763Z,100055.41
2023-02-19T06:51:46.406Z,100048.25
2023-02-19T06:52:48.563Z,100049.84
2023-02-19T06:53:50.738Z,100043.00
2023-02-19T06:54:53.853Z,100046.84
2023-02-19T06:56:01.828Z,100054.81
2023-02-19T06:57:04.068Z,100058.66
2023-02-19T06:58:07.923Z,100065.25
2023-02-19T06:59:16.959Z,100067.75
2023-02-19T07:00:23.609Z,100065.84
2023-02-19T07:01:26.786Z,100065.00
2023-02-19T07:02:31.969Z,100060.59
2023-02-19T07:03:34.110Z,100075.16
2023-02-19T07:04:38.404Z,100075.75
2023-02-19T07:05:40.580Z,100076.56
2023-02-19T07:06:42.947Z,100086.75
2023-02-19T07:07:46.216Z,100081.25
2023-02-19T07:08:49.381Z,100076.84
2023-02-19T07:09:56.345Z,100087.59
2023-02-19T07:10:59.126Z,100092.88
2023-02-19T07:12:01.328Z,100091.75
2023-02-19T07:13:04.854Z,100094.50
2023-02-19T07:14:13.458Z,100094.50
2023-02-19T07:15:15.608Z,100096.44
2023-02-19T07:16:18.216Z,100099.44
2023-02-19T07:17:21.324Z,100101.94
2023-02-19T07:18:23.725Z,100102.19
2023-02-19T07:19:27.038Z,100109.38
2023-02-19T07:20:29.266Z,100108.25
2023-02-19T07:21:31.695Z,100102.19
2023-02-19T07:22:33.953Z,100112.34
2023-02-19T07:23:36.646Z,100111.53
2023-02-19T07:24:39.229Z,100125.78
2023-02-19T07:25:42.699Z,100126.88
2023-02-19T07:26:44.928Z,100140.63
2023-02-19T07:27:47.183Z,100141.13
2023-02-19T07:28:51.386Z,100144.63
2023-02-19T07:29:53.792Z,100146.19
2023-02-19T07:31:01.079Z,100146.94
2023-02-19T07:32:03.594Z,100149.94
2023-02-19T07:33:06.492Z,100151.25
2023-02-19T07:34:09.316Z,100157.50
2023-02-19T07:35:12.088Z,100164.34
2023-02-19T07:36:17.404Z,100169.84
2023-02-19T07:37:19.775Z,100172.59
2023-02-19T07:38:24.008Z,100177.50
2023-02-19T07:39:26.758Z,100182.16
2023-02-19T07:40:29.186Z,100184.56
2023-02-19T07:41:31.813Z,100196.63
2023-02-19T07:42:34.212Z,100198.47
2023-02-19T07:43:38.030Z,100206.34
2023-02-19T07:44:42.480Z,100214.41
2023-02-19T07:45:45.075Z,100218.34
2023-02-19T07:46:50.222Z,100221.50
2023-02-19T07:47:59.588Z,100216.97
2023-02-19T07:49:01.840Z,100221.03
2023-02-19T07:50:04.755Z,100229.25
2023-02-19T07:51:11.235Z,100228.66
2023-02-19T07:52:13.637Z,100230.47
2023-02-19T07:53:16.102Z,100231.75
2023-02-19T07:54:18.252Z,100238.31
2023-02-19T07:55:20.741Z,100236.88
2023-02-19T07:56:24.461Z,100234.38
2023-02-19T07:57:31.399Z,100241.19
2023-02-19T07:58:34.379Z,100236.78
2023-02-19T07:59:36.789Z,100238.09
2023-02-19T08:00:42.581Z,100236.44
2023-02-19T08:02:05.694Z,100243.25
2023-02-19T08:03:08.212Z,100250.63
2023-02-19T08:04:12.579Z,100249.44
2023-02-19T08:05:15.050Z,100257.94
2023-02-19T08:06:17.198Z,100252.69
2023-02-19T08:07:19.762Z,100252.91
2023-02-19T08:08:22.356Z,100250.19
2023-02-19T08:09:24.740Z,100253.38
2023-02-19T08:10:45.980Z,100251.69
2023-02-19T08:12:10.204Z,100253.00
2023-02-19T08:13:22.688Z,100264.59
2023-02-19T08:14:28.882Z,100265.31
2023-02-19T08:15:34.550Z,100264.72
2023-02-19T08:16:42.931Z,100273.22
2023-02-19T08:17:45.709Z,100272.84
2023-02-19T08:18:52.313Z,100277.13
2023-02-19T08:19:54.562Z,100283.94
2023-02-19T08:20:58.343Z,100289.41
2023-02-19T08:22:00.563Z,100290.72
2023-02-19T08:23:02.715Z,100299.22
2023-02-19T08:24:05.665Z,100306.81
2023-02-19T08:25:08.656Z,100311.69
2023-02-19T08:26:10.987Z,100311.56
2023-02-19T08:27:13.255Z,100317.91
2023-02-19T08:28:15.542Z,100317.31
2023-02-19T08:29:17.732Z,100325.78
2023-02-19T08:30:19.944Z,100319.31
2023-02-19T08:31:22.434Z,100336.25
2023-02-19T08:32:24.667Z,100334.78
2023-02-19T08:33:27.319Z,100335.28
2023-02-19T08:34:30.599Z,100328.34
2023-02-19T08:35:35.851Z,100334.06
2023-02-19T08:36:40.682Z,100332.63
2023-02-19T08:37:42.869Z,100339.19
2023-02-19T08:38:45.067Z,100341.53
2023-02-19T08:39:47.204Z,100346.19
2023-02-19T08:40:49.417Z,100350.00
2023-02-19T08:41:51.654Z,100356.78
2023-02-19T08:42:54.293Z,100365.88
2023-02-19T08:43:56.473Z,100368.84
2023-02-19T08:44:59.050Z,100374.78
2023-02-19T08:46:01.400Z,100369.31
2023-02-19T08:47:05.122Z,100378.84
2023-02-19T08:48:09.139Z,100387.06
2023-02-19T08:49:11.264Z,100386.44
2023-02-19T08:50:13.472Z,100397.66
2023-02-19T08:51:15.840Z,100397.25
2023-02-19T08:52:18.505Z,100401.31
2023-02-19T08:53:20.689Z,100406.19
2023-02-19T08:54:22.881Z,100409.59
2023-02-19T08:55:25.092Z,100407.09
2023-02-19T08:56:27.812Z,100425.69
2023-02-19T08:57:30.179Z,100420.66
2023-02-19T08:58:33.180Z,100419.69
2023-02-19T08:59:35.433Z,100430.25
2023-02-19T09:00:37.891Z,100425.22
2023-02-19T09:01:40.231Z,100439.75
2023-02-19T09:02:42.730Z,100436.03
2023-02-19T09:03:44.994Z,100437.56
2023-02-19T09:04:47.278Z,100451.25
2023-02-19T09:05:49.956Z,100451.69
2023-02-19T09:06:53.352Z,100449.19
2023-02-19T09:07:55.597Z,100451.09
2023-02-19T09:08:57.750Z,100461.44
2023-02-19T09:10:01.128Z,100464.25
2023-02-19T09:11:07.147Z,100475.66
2023-02-19T09:12:12.981Z,100481.34
2023-02-19T09:13:17.393Z,100490.03
2023-02-19T09:14:19.528Z,100483.91
2023-02-19T09:15:21.749Z,100484.81
2023-02-19T09:16:25.793Z,100475.75
2023-02-19T09:17:28.107Z,100487.59
2023-02-19T09:18:30.288Z,100481.75
2023-02-19T09:19:33.765Z,100491.44
2023-02-19T09:20:35.953Z,100492.91
2023-02-19T09:21:38.140Z,100506.00
2023-02-19T09:22:40.355Z,100502.88
2023-02-19T09:23:42.832Z,100509.41
2023-02-19T09:24:45.044Z,100509.00
2023-02-19T09:25:47.380Z,100519.56
2023-02-19T09:26:50.716Z,100517.06
2023-02-19T09:27:56.553Z,100521.50
2023-02-19T09:28:59.071Z,100528.03
2023-02-19T09:30:01.364Z,100505.53
2023-02-19T09:31:08.542Z,100525.97
2023-02-19T09:32:12.139Z,100529.13
2023-02-19T09:33:14.547Z,100533.75
2023-02-19T09:34:16.912Z,100541.97
2023-02-19T09:35:19.158Z,100535.88
2023-02-19T09:36:21.350Z,100550.00
2023-02-19T09:37:27.899Z,100551.06
2023-02-19T09:38:31.337Z,100553.41
2023-02-19T09:39:34.871Z,100553.59
2023-02-19T09:40:39.099Z,100560.75
2023-02-19T09:41:47.762Z,100560.97
2023-02-19T09:42:50.974Z,100566.69
2023-02-19T09:43:53.518Z,100567.72
2023-02-19T09:44:58.866Z,100565.00
2023-02-19T09:46:15.355Z,100569.63
2023-02-19T09:47:20.778Z,100568.78
2023-02-19T09:48:22.969Z,100569.63
2023-02-19T09:49:29.907Z,100563.09
2023-02-19T09:50:41.338Z,100577.63
2023-02-19T09:51:51.401Z,100582.06
2023-02-19T09:52:58.131Z,100572.75
2023-02-19T09:54:01.448Z,100567.28
2023-02-19T09:55:16.321Z,100568.75
2023-02-19T09:56:18.732Z,100575.09
2023-02-19T09:57:21.974Z,100577.59
2023-02-19T09:58:52.301Z,100576.56
2023-02-19T10:00:05.636Z,100584.31
2023-02-19T10:01:11.322Z,100580.53
2023-02-19T10:02:15.590Z,100580.09
2023-02-19T10:03:28.887Z,100580.72
2023-02-19T10:04:31.230Z,100582.78
2023-02-19T10:05:34.563Z,100599.03
2023-02-19T10:06:39.843Z,100598.78
2023-02-19T10:07:49.232Z,100599.22
2023-02-19T10:08:56.886Z,100600.03
2023-02-19T10:10:02.741Z,100608.66
2023-02-19T10:11:06.315Z,100609.25
2023-02-19T10:12:16.358Z,100610.50
2023-02-19T10:13:31.998Z,100614.72
2023-02-19T10:14:41.997Z,100615.56
2023-02-19T10:15:54.514Z,100615.13
2023-02-19T10:17:01.005Z,100618.50
2023-02-19T10:18:08.831Z,100617.44
2023-02-19T10:19:15.664Z,100615.97
2023-02-19T10:20:24.648Z,100626.47
2023-02-19T10:21:28.377Z,100623.28
2023-02-19T10:22:36.163Z,100632.97
2023-02-19T10:23:40.806Z,100624.34
2023-02-19T10:24:45.883Z,100631.28
2023-02-19T10:25:59.612Z,100632.50
2023-02-19T10:27:04.255Z,100631.00
2023-02-19T10:28:11.669Z,100630.56
2023-02-19T10:29:13.920Z,100637.28
2023-02-19T10:30:33.615Z,100634.09
2023-02-19T10:31:36.295Z,100643.56
2023-02-19T10:32:42.237Z,100634.91
2023-02-19T10:33:51.764Z,100635.28
2023-02-19T10:35:16.111Z,100643.69
2023-02-19T10:36:29.243Z,100647.88
2023-02-19T10:37:33.539Z,100645.56
2023-02-19T10:38:39.461Z,100650.38
2023-02-19T10:39:46.892Z,100643.63
2023-02-19T10:40:52.544Z,100654.13
2023-02-19T10:41:55.120Z,100645.66
2023-02-19T10:43:01.992Z,100658.09
2023-02-19T10:44:16.389Z,100655.97
2023-02-19T10:45:40.919Z,100653.25
2023-02-19T10:46:49.899Z,100663.75
2023-02-19T10:47:53.094Z,100666.03
2023-02-19T10:48:59.185Z,100664.16
2023-02-19T10:50:04.119Z,100662.88
2023-02-19T10:51:10.043Z,100666.44
2023-02-19T10:52:35.411Z,100660.72
2023-02-19T10:53:48.954Z,100665.78
2023-02-19T10:54:55.174Z,100661.13
2023-02-19T10:56:10.812Z,100663.63
2023-02-19T10:57:16.071Z,100671.03
2023-02-19T10:58:29.083Z,100665.31
2023-02-19T10:59:31.561Z,100668.69
2023-02-19T11:00:36.280Z,100673.13
2023-02-19T11:01:53.029Z,100681.13
2023-02-19T11:03:22.013Z,100684.47
2023-02-19T11:04:26.615Z,100683.41
2023-02-19T11:05:28.934Z,100697.97
2023-02-19T11:06:34.905Z,100697.75
2023-02-19T11:07:38.495Z,100686.78
2023-02-19T11:08:57.481Z,100694.78
2023-02-19T11:10:00.444Z,100692.88
2023-02-19T11:11:02.716Z,100691.00
2023-02-19T11:12:06.181Z,100690.75
2023-02-19T11:13:19.587Z,100691.97
2023-02-19T11:14:24.832Z,100697.94
2023-02-19T11:15:30.906Z,100703.59
2023-02-19T11:16:43.673Z,100703.59
2023-02-19T11:17:55.342Z,100708.22
2023-02-19T11:18:58.223Z,100720.88
2023-02-19T11:20:08.313Z,100714.56
2023-02-19T11:21:26.250Z,100715.41
2023-02-19T11:22:39.600Z,100718.13
2023-02-19T11:23:47.095Z,100714.75
2023-02-19T11:24:57.298Z,100709.50
2023-02-19T11:26:18.460Z,100720.94
2023-02-19T11:27:25.030Z,100713.53
2023-02-19T11:28:32.816Z,100716.28
2023-02-19T11:29:35.158Z,100715.69
2023-02-19T11:30:40.854Z,100712.94
2023-02-19T11:31:45.529Z,100719.25
2023-02-19T11:32:47.920Z,100717.56
2023-02-19T11:34:29.666Z,100716.09
2023-02-19T11:35:32.360Z,100717.41
2023-02-19T11:36:36.352Z,100721.19
2023-02-19T11:37:56.719Z,100719.31
2023-02-19T11:39:06.772Z,100718.25
2023-02-19T11:40:12.245Z,100718.44
2023-02-19T11:41:46.929Z,100711.31
2023-02-19T11:43:09.786Z,100725.25
2023-02-19T11:44:20.079Z,100725.03
2023-02-19T11:45:38.580Z,100732.16
2023-02-19T11:47:05.797Z,100732.16
2023-02-19T11:48:24.878Z,100736.81
2023-02-19T11:49:44.527Z,100736.00
2023-02-19T11:51:04.680Z,100727.13
2023-02-19T11:52:31.253Z,100741.91
2023-02-19T11:53:38.767Z,100736.44
2023-02-19T11:54:52.060Z,100738.13
2023-02-19T11:56:13.654Z,100738.34
2023-02-19T11:57:45.197Z,100743.59
2023-02-19T11:59:21.646Z,100750.16
2023-02-19T12:00:28.285Z,100749.94
2023-02-19T12:01:49.229Z,100744.22
2023-02-19T12:03:29.943Z,100751.38
2023-02-19T12:04:37.998Z,100751.19
2023-02-19T12:05:49.174Z,100763.81
2023-02-19T12:07:22.972Z,100763.22
2023-02-19T12:08:48.075Z,100768.69
2023-02-19T12:09:53.261Z,100765.72
2023-02-19T12:11:01.611Z,100780.28
2023-02-19T12:12:24.476Z,100768.47
2023-02-19T12:14:18.512Z,100774.59
2023-02-19T12:15:39.957Z,100776.25
2023-02-19T12:17:03.806Z,100779.00
2023-02-19T12:18:20.494Z,100774.34
2023-02-19T12:19:58.122Z,100772.44
2023-02-19T12:21:21.427Z,100768.66
2023-02-19T12:22:37.178Z,100772.03
2023-02-19T12:23:49.866Z,100765.66
2023-02-19T12:25:29.903Z,100769.03
2023-02-19T12:26:50.123Z,100770.50
2023-02-19T12:28:26.426Z,100774.09
2023-02-19T12:29:42.060Z,100773.44
2023-02-19T12:31:18.897Z,100769.00
2023-02-19T12:32:27.381Z,100773.66
2023-02-19T12:33:59.057Z,100768.16
2023-02-19T12:35:20.242Z,100769.00
2023-02-19T12:36:39.168Z,100768.53
2023-02-19T12:38:10.838Z,100771.06
2023-02-19T12:39:40.179Z,100773.78
2023-02-19T12:41:03.814Z,100779.09
2023-02-19T12:42:44.273Z,100766.19
2023-02-19T12:44:04.449Z,100768.47
2023-02-19T12:45:31.542Z,100765.53
2023-02-19T12:46:38.583Z,100766.59
2023-02-19T12:47:46.533Z,100761.94
2023-02-19T12:48:58.290Z,100766.38
2023-02-19T12:50:23.801Z,100771.63
2023-02-19T12:51:48.845Z,100762.56
2023-02-19T12:52:58.469Z,100764.25
2023-02-19T12:54:06.784Z,100755.78
2023-02-19T12:55:42.118Z,100768.66
2023-02-19T12:56:48.471Z,100764.84
2023-02-19T12:57:52.585Z,100761.09